Time;durP1;ratioP1;P1;durP2;ratioP2;P2;SDS_P1;SDS_P2;PMS_P1;PMS_P2;Temp;Humidity;BMP_temperature;BMP_pressure;BME280_temperature;BME280_humidity;BME280_pressure;Samples;Min_cycle;Max_cycle;Signal;HPM_P1;HPM_P2
2021/11/11 00:01:42;;;;;;;34.85;16.13;;;12.80;92.30;;;;;;5113345;28;20379;-75
2021/11/11 00:04:11;;;;;;;16.55;6.65;;;12.70;92.30;;;;;;5114282;28;20027;-77
2021/11/11 00:06:39;;;;;;;33.88;15.25;;;12.80;92.30;;;;;;5095816;28;20372;-76
2021/11/11 00:09:05;;;;;;;41.30;19.75;;;12.80;92.30;;;;;;5104963;28;20054;-76
2021/11/11 00:11:31;;;;;;;39.42;17.45;;;12.70;92.30;;;;;;5109500;28;20027;-76
2021/11/11 00:13:57;;;;;;;38.95;16.65;;;12.80;92.30;;;;;;5100830;28;20059;-77
2021/11/11 00:16:22;;;;;;;31.73;16.38;;;12.70;92.30;;;;;;5112610;28;20063;-76
2021/11/11 00:18:48;;;;;;;7.10;4.72;;;12.70;92.30;;;;;;5095529;28;20027;-76
2021/11/11 00:21:14;;;;;;;9.05;4.75;;;12.70;92.30;;;;;;5095856;28;20392;-76
2021/11/11 00:23:42;;;;;;;28.33;12.93;;;12.70;92.30;;;;;;5103948;28;20566;-76
2021/11/11 00:26:08;;;;;;;31.20;14.55;;;12.80;92.30;;;;;;5096881;28;20146;-76
2021/11/11 00:28:33;;;;;;;20.85;10.25;;;12.70;92.30;;;;;;5093879;28;20145;-75
2021/11/11 00:31:00;;;;;;;24.17;8.32;;;12.70;92.30;;;;;;5095129;28;20077;-76
2021/11/11 00:33:25;;;;;;;47.33;18.45;;;12.70;92.30;;;;;;5075139;28;20036;-76
2021/11/11 00:35:51;;;;;;;24.00;10.27;;;12.70;92.30;;;;;;5104916;28;20032;-75
2021/11/11 00:38:17;;;;;;;45.83;16.33;;;12.70;92.30;;;;;;5089246;28;20040;-76
2021/11/11 00:40:44;;;;;;;32.03;14.30;;;12.70;92.30;;;;;;5110630;28;20048;-76
2021/11/11 00:43:10;;;;;;;42.92;16.77;;;12.70;92.40;;;;;;5103517;28;20111;-76
2021/11/11 00:45:38;;;;;;;35.90;12.10;;;12.70;92.40;;;;;;5094190;28;20022;-76
2021/11/11 00:48:04;;;;;;;36.92;15.13;;;12.70;92.40;;;;;;5094521;28;20103;-76
2021/11/11 00:50:31;;;;;;;25.45;10.63;;;12.70;92.40;;;;;;5086790;28;20424;-76
2021/11/11 00:52:58;;;;;;;27.83;11.43;;;12.70;92.40;;;;;;5112034;28;20776;-76
2021/11/11 00:55:24;;;;;;;39.65;15.73;;;12.70;92.40;;;;;;5081555;28;20444;-75
2021/11/11 00:58:07;;;;;;;34.53;12.90;;;12.70;92.40;;;;;;5075243;28;20548;-75
2021/11/11 01:00:36;;;;;;;29.60;12.52;;;12.70;92.40;;;;;;5092302;28;20028;-76
2021/11/11 01:03:04;;;;;;;26.70;10.93;;;12.70;92.40;;;;;;5094192;28;20028;-76
2021/11/11 01:05:30;;;;;;;36.92;17.50;;;12.70;92.40;;;;;;5102997;28;20459;-76
2021/11/11 01:07:56;;;;;;;38.80;14.75;;;12.70;92.40;;;;;;5106368;28;20100;-76
2021/11/11 01:10:23;;;;;;;34.55;15.57;;;12.70;92.40;;;;;;5100373;28;20031;-76
2021/11/11 01:12:50;;;;;;;41.15;7.65;;;12.80;92.40;;;;;;5081138;28;20032;-76
2021/11/11 01:15:19;;;;;;;28.80;11.88;;;12.80;92.30;;;;;;5107136;28;20131;-76
2021/11/11 01:17:48;;;;;;;34.83;15.40;;;12.70;92.30;;;;;;5093916;28;20089;-75
2021/11/11 01:20:16;;;;;;;39.03;15.35;;;12.80;92.30;;;;;;5077035;28;20094;-76
2021/11/11 01:22:43;;;;;;;37.67;16.42;;;12.80;92.40;;;;;;5112946;28;20521;-76
2021/11/11 01:25:11;;;;;;;14.55;5.93;;;12.70;92.30;;;;;;5098426;28;20081;-76
2021/11/11 01:27:38;;;;;;;45.75;16.48;;;12.70;92.30;;;;;;5081655;28;20042;-76
2021/11/11 01:30:10;;;;;;;30.58;11.00;;;12.70;92.40;;;;;;5092526;28;20136;-76
2021/11/11 01:32:36;;;;;;;29.63;12.95;;;12.70;92.40;;;;;;5105276;28;20020;-75
2021/11/11 01:35:03;;;;;;;35.15;13.40;;;12.70;92.40;;;;;;5074964;28;20073;-76
2021/11/11 01:37:30;;;;;;;41.17;16.23;;;12.70;92.40;;;;;;5092929;28;20058;-75
2021/11/11 01:39:56;;;;;;;35.67;15.85;;;12.70;92.50;;;;;;5093289;28;20368;-75
2021/11/11 01:42:22;;;;;;;20.38;10.10;;;12.70;92.50;;;;;;5084684;28;20039;-75
2021/11/11 01:44:51;;;;;;;44.85;16.73;;;12.70;92.50;;;;;;5075155;28;20028;-75
2021/11/11 01:47:19;;;;;;;13.52;5.90;;;12.70;92.50;;;;;;5073875;28;20561;-75
2021/11/11 01:49:47;;;;;;;29.70;11.88;;;12.70;92.50;;;;;;5073865;28;20034;-76
2021/11/11 01:52:17;;;;;;;28.40;13.15;;;12.70;92.50;;;;;;5073837;28;20024;-76
2021/11/11 01:54:45;;;;;;;29.20;13.15;;;12.70;92.50;;;;;;5091463;28;20039;-75
2021/11/11 01:57:14;;;;;;;43.50;15.82;;;12.70;92.50;;;;;;5110665;28;20035;-76
2021/11/11 01:59:40;;;;;;;27.73;11.75;;;12.70;92.50;;;;;;5091101;28;20035;-76
2021/11/11 02:02:07;;;;;;;30.35;13.70;;;12.70;92.50;;;;;;5082758;28;20103;-76
2021/11/11 02:04:43;;;;;;;22.88;10.30;;;12.70;92.50;;;;;;5075939;28;20115;-76
2021/11/11 02:07:09;;;;;;;36.45;16.23;;;12.70;92.40;;;;;;5088466;28;20127;-76
2021/11/11 02:09:46;;;;;;;22.55;9.32;;;12.70;92.50;;;;;;5106067;28;20023;-76
2021/11/11 02:12:15;;;;;;;21.65;9.63;;;12.70;92.50;;;;;;5074228;28;20020;-76
2021/11/11 02:14:50;;;;;;;27.60;8.15;;;12.70;92.50;;;;;;5085879;28;20024;-75
2021/11/11 02:17:26;;;;;;;29.67;13.43;;;12.70;92.80;;;;;;5083442;28;20518;-75
2021/11/11 02:20:04;;;;;;;28.08;8.18;;;12.70;92.50;;;;;;5077453;28;20028;-76
2021/11/11 02:22:52;;;;;;;36.35;12.02;;;12.70;92.50;;;;;;5113964;28;20587;-75
2021/11/11 02:25:24;;;;;;;34.70;12.70;;;12.70;92.50;;;;;;5089409;28;20031;-76
2021/11/11 02:27:53;;;;;;;39.58;15.73;;;12.70;92.50;;;;;;5079617;28;20023;-78
2021/11/11 02:30:23;;;;;;;20.35;9.77;;;12.60;92.50;;;;;;5075514;28;20059;-77
2021/11/11 02:32:53;;;;;;;26.92;12.73;;;12.70;92.50;;;;;;5075305;28;20032;-76
2021/11/11 02:35:25;;;;;;;38.63;14.48;;;12.70;92.50;;;;;;5076397;28;20059;-77
2021/11/11 02:37:52;;;;;;;16.30;6.57;;;12.70;92.50;;;;;;5102581;28;20043;-76
2021/11/11 02:40:25;;;;;;;31.63;12.75;;;12.70;92.40;;;;;;5086493;28;20115;-76
2021/11/11 02:42:52;;;;;;;33.78;13.75;;;12.70;92.40;;;;;;5074275;28;20103;-76
2021/11/11 02:45:45;;;;;;;25.67;12.23;;;12.70;92.40;;;;;;5073975;28;20028;-76
2021/11/11 02:48:14;;;;;;;30.90;13.35;;;12.80;92.40;;;;;;5103427;28;20081;-76
2021/11/11 02:50:45;;;;;;;28.27;10.60;;;12.70;92.30;;;;;;5082025;28;20058;-77
2021/11/11 02:53:11;;;;;;;33.60;12.55;;;12.80;92.30;;;;;;5074211;28;20532;-77
2021/11/11 02:55:40;;;;;;;44.92;14.80;;;12.70;92.20;;;;;;5086958;28;20065;-77
2021/11/11 02:58:06;;;;;;;33.97;13.77;;;12.80;92.30;;;;;;5064966;28;20036;-76
2021/11/11 03:00:48;;;;;;;29.80;10.27;;;12.80;92.30;;;;;;5071534;28;20430;-77
2021/11/11 03:03:16;;;;;;;20.73;9.93;;;12.80;92.20;;;;;;5054019;28;20234;-76
2021/11/11 03:05:42;;;;;;;29.13;12.65;;;12.80;92.20;;;;;;5059945;28;20044;-77
2021/11/11 03:08:12;;;;;;;24.08;9.25;;;12.80;92.20;;;;;;5053119;28;20017;-77
2021/11/11 03:10:45;;;;;;;34.63;12.68;;;12.70;92.20;;;;;;5066833;28;20043;-77
2021/11/11 03:13:13;;;;;;;27.30;10.77;;;12.70;92.20;;;;;;5058267;28;20031;-76
2021/11/11 03:15:42;;;;;;;27.92;11.95;;;12.70;92.30;;;;;;5060494;28;20033;-76
2021/11/11 03:18:10;;;;;;;16.70;7.63;;;12.70;92.30;;;;;;5065945;28;20039;-76
2021/11/11 03:20:38;;;;;;;24.98;10.10;;;12.70;92.30;;;;;;5062791;28;20032;-89
2021/11/11 03:23:05;;;;;;;15.93;6.70;;;12.70;92.30;;;;;;5058318;28;20056;-76
2021/11/11 03:25:34;;;;;;;21.08;8.27;;;12.70;92.30;;;;;;5066329;28;20039;-77
2021/11/11 03:28:00;;;;;;;23.35;10.93;;;12.60;92.30;;;;;;5057969;28;20024;-77
2021/11/11 03:30:30;;;;;;;34.78;8.63;;;12.70;92.40;;;;;;5060439;28;20025;-76
2021/11/11 03:32:59;;;;;;;24.88;10.32;;;12.60;92.30;;;;;;5057457;28;20040;-76
2021/11/11 03:35:30;;;;;;;25.67;10.82;;;12.60;92.30;;;;;;5058728;28;20445;-76
2021/11/11 03:38:00;;;;;;;31.38;11.60;;;12.60;92.70;;;;;;5056094;28;20036;-76
2021/11/11 03:40:31;;;;;;;25.80;11.32;;;12.60;92.40;;;;;;5057218;28;20032;-76
2021/11/11 03:42:59;;;;;;;24.73;10.38;;;12.60;92.40;;;;;;5054912;28;20020;-76
2021/11/11 03:45:30;;;;;;;19.88;7.13;;;12.60;92.50;;;;;;5070033;28;20020;-76
2021/11/11 03:47:56;;;;;;;22.48;9.50;;;12.60;92.50;;;;;;5064281;28;20382;-77
2021/11/11 03:50:23;;;;;;;24.80;9.18;;;12.60;92.40;;;;;;5082814;28;20024;-76
2021/11/11 03:52:49;;;;;;;15.63;6.13;;;12.60;92.50;;;;;;5065519;28;20055;-77
2021/11/11 03:55:17;;;;;;;29.73;10.77;;;12.60;92.40;;;;;;5073129;28;20036;-76
2021/11/11 03:57:45;;;;;;;28.20;10.77;;;12.70;92.40;;;;;;5063880;28;20033;-77
2021/11/11 04:00:14;;;;;;;19.63;8.02;;;12.70;92.40;;;;;;5069329;28;20033;-77
2021/11/11 04:02:49;;;;;;;34.78;12.05;;;12.70;92.40;;;;;;5066822;28;20395;-76
2021/11/11 04:05:17;;;;;;;21.15;9.02;;;12.60;92.40;;;;;;5062696;28;20107;-76
2021/11/11 04:07:51;;;;;;;17.70;7.90;;;12.60;92.40;;;;;;5070966;28;20860;-76
2021/11/11 04:10:18;;;;;;;10.00;5.18;;;12.60;92.40;;;;;;5065714;28;20041;-76
2021/11/11 04:12:46;;;;;;;25.63;9.57;;;12.60;92.40;;;;;;5069008;28;20020;-75
2021/11/11 04:15:14;;;;;;;22.15;8.90;;;12.60;92.50;;;;;;5062596;28;20027;-76
2021/11/11 04:17:40;;;;;;;32.13;12.82;;;12.50;92.50;;;;;;5068059;28;20399;-77
2021/11/11 04:20:10;;;;;;;19.27;8.93;;;12.50;92.50;;;;;;5061622;28;20028;-77
2021/11/11 04:22:39;;;;;;;29.40;11.80;;;12.50;92.50;;;;;;5057318;28;20032;-77
2021/11/11 04:25:07;;;;;;;14.82;6.78;;;12.50;92.50;;;;;;5057591;28;20059;-77
2021/11/11 04:27:44;;;;;;;29.30;11.45;;;12.60;92.50;;;;;;5064045;28;20024;-77
2021/11/11 04:30:19;;;;;;;;;;;12.50;92.60;;;;;;5065758;28;20070;-77
2021/11/11 04:32:45;;;;;;;21.95;9.18;;;12.50;92.50;;;;;;5076409;28;19908;-76
2021/11/11 04:35:12;;;;;;;14.27;6.82;;;12.50;92.50;;;;;;5056168;28;20060;-77
2021/11/11 04:41:10;;;;;;;25.77;10.32;;;12.50;92.70;;;;;;4990957;28;20059;-77
2021/11/11 04:52:37;;;;;;;32.60;11.73;;;12.50;92.60;;;;;;4993759;28;20060;-77
2021/11/11 05:03:02;;;;;;;25.95;10.32;;;12.40;92.70;;;;;;5073167;28;20414;-76
2021/11/11 05:05:29;;;;;;;22.23;6.22;;;12.40;92.80;;;;;;5069292;28;20054;-76
2021/11/11 05:07:56;;;;;;;39.53;14.40;;;12.40;92.80;;;;;;5075925;28;20020;-76
2021/11/11 05:10:22;;;;;;;11.50;5.15;;;12.40;92.90;;;;;;5075280;28;20035;-76
2021/11/11 05:12:49;;;;;;;37.83;13.77;;;12.40;92.80;;;;;;5071254;28;20448;-77
2021/11/11 05:15:17;;;;;;;30.60;13.18;;;12.40;92.90;;;;;;5064246;28;20042;-76
2021/11/11 05:17:46;;;;;;;35.40;11.82;;;12.40;92.90;;;;;;5072798;28;20040;-77
2021/11/11 05:20:14;;;;;;;23.30;10.07;;;12.40;92.80;;;;;;5062262;28;20023;-76
2021/11/11 05:22:41;;;;;;;32.88;13.15;;;12.40;92.80;;;;;;5074722;28;20043;-77
2021/11/11 05:25:07;;;;;;;22.45;8.40;;;12.40;92.90;;;;;;5072591;28;20196;-76
2021/11/11 05:27:35;;;;;;;16.33;6.90;;;12.40;92.80;;;;;;5074505;28;20032;-76
2021/11/11 05:30:04;;;;;;;26.80;10.10;;;12.40;92.80;;;;;;5072471;28;20020;-76
2021/11/11 05:32:31;;;;;;;34.15;13.57;;;12.40;92.80;;;;;;5072379;28;20073;-77
2021/11/11 05:34:56;;;;;;;8.32;3.78;;;12.50;92.90;;;;;;5070672;28;20047;-77
2021/11/11 05:37:22;;;;;;;21.92;8.63;;;12.50;92.80;;;;;;5090834;28;20032;-77
2021/11/11 05:39:48;;;;;;;21.05;8.93;;;12.40;92.80;;;;;;5072944;28;20028;-76
2021/11/11 05:42:14;;;;;;;17.33;7.13;;;12.40;92.80;;;;;;5072538;28;20399;-76
2021/11/11 05:44:40;;;;;;;30.92;11.52;;;12.50;92.80;;;;;;5080044;28;20031;-77
2021/11/11 05:47:06;;;;;;;27.92;5.65;;;12.40;92.80;;;;;;5082560;28;20443;-76
2021/11/11 05:49:33;;;;;;;9.57;4.55;;;12.40;92.80;;;;;;5073853;28;20035;-77
2021/11/11 05:51:59;;;;;;;31.00;12.20;;;12.40;92.80;;;;;;5070932;28;20111;-77
2021/11/11 05:54:25;;;;;;;17.83;7.18;;;12.40;92.90;;;;;;5065297;28;20045;-77
2021/11/11 05:56:51;;;;;;;14.80;7.68;;;12.40;92.90;;;;;;5061275;28;20036;-76
2021/11/11 05:59:17;;;;;;;22.92;7.72;;;12.40;92.90;;;;;;5058785;28;20107;-77
2021/11/11 06:01:43;;;;;;;33.22;12.60;;;12.40;92.90;;;;;;5073403;28;20549;-76
2021/11/11 06:04:09;;;;;;;22.42;9.40;;;12.40;93.00;;;;;;5059563;28;20024;-76
2021/11/11 06:06:42;;;;;;;27.80;10.75;;;12.30;93.00;;;;;;5063699;28;20497;-77
2021/11/11 06:09:08;;;;;;;32.13;10.55;;;12.40;93.00;;;;;;5076208;28;20028;-76
2021/11/11 06:11:34;;;;;;;22.60;6.88;;;12.30;93.00;;;;;;5062235;28;20034;-77
2021/11/11 06:14:00;;;;;;;26.40;11.13;;;12.40;93.00;;;;;;5080824;28;20024;-86
2021/11/11 06:16:26;;;;;;;11.05;4.35;;;12.30;93.00;;;;;;5067138;28;20036;-76
2021/11/11 06:18:52;;;;;;;20.13;8.57;;;12.40;93.00;;;;;;5077037;28;20028;-75
2021/11/11 06:21:21;;;;;;;19.77;8.23;;;12.40;93.00;;;;;;5062998;28;20024;-75
2021/11/11 06:23:50;;;;;;;14.80;6.80;;;12.40;93.00;;;;;;5079713;28;20047;-75
2021/11/11 06:26:18;;;;;;;20.13;8.85;;;12.40;93.00;;;;;;5063454;28;20027;-76
2021/11/11 06:28:53;;;;;;;33.45;12.35;;;12.40;92.90;;;;;;5060400;28;20073;-74
2021/11/11 06:31:19;;;;;;;14.98;8.00;;;12.40;92.90;;;;;;5059123;28;20118;-75
2021/11/11 06:33:45;;;;;;;11.88;5.47;;;12.50;92.90;;;;;;5065256;28;20395;-75
2021/11/11 06:36:11;;;;;;;33.40;13.95;;;12.40;92.90;;;;;;5061678;28;20116;-75
2021/11/11 06:38:37;;;;;;;35.33;11.70;;;12.40;93.00;;;;;;5079628;28;20118;-75
2021/11/11 06:41:03;;;;;;;27.45;10.13;;;12.40;93.00;;;;;;5082855;28;20036;-75
2021/11/11 06:43:29;;;;;;;22.42;8.70;;;12.40;93.00;;;;;;5074734;28;20031;-75
2021/11/11 06:45:56;;;;;;;17.25;7.25;;;12.40;93.00;;;;;;5085264;28;20024;-76
2021/11/11 06:48:21;;;;;;;21.38;8.38;;;12.40;93.00;;;;;;5078495;28;20028;-76
2021/11/11 06:50:47;;;;;;;20.85;7.40;;;12.40;93.10;;;;;;5077621;28;20439;-74
2021/11/11 06:53:16;;;;;;;18.25;6.90;;;12.30;93.10;;;;;;5079303;28;20020;-74
2021/11/11 06:55:43;;;;;;;14.25;5.95;;;12.30;93.20;;;;;;5105826;28;20043;-75
2021/11/11 06:58:10;;;;;;;17.10;8.52;;;12.30;93.30;;;;;;5105136;28;20445;-77
2021/11/11 07:00:38;;;;;;;15.45;8.80;;;12.30;93.30;;;;;;5088522;28;20034;-74
2021/11/11 07:03:06;;;;;;;23.60;8.93;;;12.30;93.30;;;;;;5087238;28;20501;-74
2021/11/11 07:05:33;;;;;;;18.00;7.00;;;12.30;93.40;;;;;;5090652;28;20110;-78
2021/11/11 07:07:59;;;;;;;14.27;5.97;;;12.20;93.40;;;;;;5101152;28;20477;-77
2021/11/11 07:10:24;;;;;;;17.45;7.75;;;12.30;93.50;;;;;;5103391;28;20035;-76
2021/11/11 07:12:51;;;;;;;16.85;8.40;;;12.30;93.50;;;;;;5105046;28;20111;-76
2021/11/11 07:15:17;;;;;;;10.07;5.20;;;12.20;93.50;;;;;;5098288;28;20153;-75
2021/11/11 07:17:44;;;;;;;31.17;10.60;;;12.30;93.60;;;;;;5106561;28;20039;-75
2021/11/11 07:20:13;;;;;;;16.23;7.35;;;12.30;93.60;;;;;;5101454;28;20068;-87
2021/11/11 07:22:40;;;;;;;41.05;16.02;;;12.30;93.60;;;;;;5102549;28;20464;-81
2021/11/11 07:25:07;;;;;;;16.20;9.00;;;12.30;93.60;;;;;;5095624;28;20067;-75
2021/11/11 07:27:34;;;;;;;20.48;9.30;;;12.30;93.60;;;;;;5102201;28;20399;-75
2021/11/11 07:30:12;;;;;;;30.40;11.90;;;12.30;93.60;;;;;;5101830;28;20132;-75
2021/11/11 07:32:38;;;;;;;33.97;13.93;;;12.30;93.60;;;;;;5105820;28;20031;-74
2021/11/11 07:35:08;;;;;;;13.18;6.68;;;12.30;93.50;;;;;;5102514;28;20042;-82
2021/11/11 07:37:34;;;;;;;31.50;14.40;;;12.40;93.50;;;;;;5102061;28;20123;-76
2021/11/11 07:39:59;;;;;;;29.05;8.90;;;12.40;93.50;;;;;;5105427;28;20096;-76
2021/11/11 07:42:25;;;;;;;26.17;8.15;;;12.30;93.50;;;;;;5096540;28;20419;-76
2021/11/11 07:44:56;;;;;;;48.72;21.77;;;12.40;93.50;;;;;;5085749;28;20031;-77
2021/11/11 07:47:28;;;;;;;43.15;18.70;;;12.40;93.50;;;;;;5103781;28;20430;-76
2021/11/11 07:49:58;;;;;;;45.03;18.00;;;12.40;93.50;;;;;;5095469;28;20141;-77
2021/11/11 07:52:26;;;;;;;34.67;17.23;;;12.40;93.50;;;;;;5107633;28;20027;-77
2021/11/11 07:54:53;;;;;;;30.30;13.90;;;12.40;93.50;;;;;;5105512;28;20157;-76
2021/11/11 07:57:28;;;;;;;21.60;10.07;;;12.40;93.40;;;;;;5107697;28;20127;-76
2021/11/11 07:59:54;;;;;;;32.42;12.40;;;12.40;93.50;;;;;;5095757;28;20034;-76
2021/11/11 08:02:20;;;;;;;24.73;11.25;;;12.40;93.50;;;;;;5096373;28;20461;-76
2021/11/11 08:04:47;;;;;;;38.50;15.80;;;12.50;93.80;;;;;;5105367;28;20031;-73
2021/11/11 08:07:17;;;;;;;14.23;6.78;;;12.40;93.50;;;;;;5099631;28;20540;-71
2021/11/11 08:09:43;;;;;;;29.65;14.20;;;12.40;93.50;;;;;;5094977;28;20051;-79
2021/11/11 08:12:10;;;;;;;22.35;11.02;;;12.50;93.60;;;;;;5096194;28;20024;-74
2021/11/11 08:14:36;;;;;;;15.70;7.82;;;12.50;93.60;;;;;;5108234;28;20077;-74
2021/11/11 08:17:01;;;;;;;32.38;16.27;;;12.50;93.60;;;;;;5095989;28;20125;-74
2021/11/11 08:19:27;;;;;;;39.88;18.33;;;12.50;93.60;;;;;;5095747;28;20112;-74
2021/11/11 08:21:53;;;;;;;19.83;10.90;;;12.50;93.60;;;;;;5104180;28;20036;-75
2021/11/11 08:24:18;;;;;;;27.23;10.98;;;12.50;93.60;;;;;;5104684;28;20075;-74
2021/11/11 08:26:44;;;;;;;38.58;18.13;;;12.50;93.50;;;;;;5106427;28;20060;-74
2021/11/11 08:29:10;;;;;;;24.45;11.18;;;12.50;93.60;;;;;;5103678;28;20020;-74
2021/11/11 08:31:35;;;;;;;18.40;9.57;;;12.50;93.50;;;;;;5108508;28;20024;-74
2021/11/11 08:34:02;;;;;;;14.43;8.20;;;12.50;93.50;;;;;;5112956;28;20096;-75
2021/11/11 08:36:28;;;;;;;24.30;12.68;;;12.60;93.60;;;;;;5113181;28;20109;-75
2021/11/11 08:38:56;;;;;;;34.00;14.35;;;12.60;93.60;;;;;;5098245;28;20131;-75
2021/11/11 08:41:22;;;;;;;19.25;8.98;;;12.50;93.50;;;;;;5101525;28;20483;-74
2021/11/11 08:43:48;;;;;;;38.83;20.77;;;12.60;93.60;;;;;;5109522;28;20029;-74
2021/11/11 08:46:15;;;;;;;18.65;8.73;;;12.60;93.60;;;;;;5094106;28;20051;-75
2021/11/11 08:48:41;;;;;;;22.85;8.85;;;12.60;93.70;;;;;;5092697;28;20024;-75
2021/11/11 08:51:06;;;;;;;30.67;16.08;;;12.50;93.70;;;;;;5105399;28;20846;-75
2021/11/11 08:53:32;;;;;;;8.50;4.60;;;12.50;93.70;;;;;;5099914;28;20388;-77
2021/11/11 08:55:58;;;;;;;21.55;12.07;;;12.50;93.70;;;;;;5099593;28;20028;-76
2021/11/11 08:58:24;;;;;;;30.90;15.00;;;12.60;93.80;;;;;;5106088;28;20043;-75
2021/11/11 09:00:52;;;;;;;29.77;11.27;;;12.60;93.80;;;;;;5094485;28;20031;-76
2021/11/11 09:03:19;;;;;;;13.63;7.55;;;12.60;93.80;;;;;;5100855;28;20038;-75
2021/11/11 09:05:45;;;;;;;13.13;7.15;;;12.60;93.80;;;;;;5097504;28;20073;-75
2021/11/11 09:08:12;;;;;;;23.15;12.27;;;12.60;93.80;;;;;;5112084;28;20470;-75
2021/11/11 09:10:42;;;;;;;27.45;13.13;;;12.60;93.80;;;;;;5112062;28;20035;-75
2021/11/11 09:13:08;;;;;;;16.08;8.13;;;12.60;93.90;;;;;;5093273;28;20502;-75
2021/11/11 09:15:34;;;;;;;14.50;7.65;;;12.60;93.80;;;;;;5093440;28;20475;-75
2021/11/11 09:18:03;;;;;;;18.75;10.30;;;12.60;93.80;;;;;;5091758;28;20042;-75
2021/11/11 09:20:29;;;;;;;19.75;10.05;;;12.60;93.80;;;;;;5092462;28;20495;-76
2021/11/11 09:22:57;;;;;;;30.80;17.35;;;12.70;93.80;;;;;;5092968;28;20533;-75
2021/11/11 09:25:24;;;;;;;21.48;8.57;;;12.70;93.90;;;;;;5096804;28;20027;-75
2021/11/11 09:27:54;;;;;;;13.75;8.15;;;12.70;93.80;;;;;;5112514;28;20035;-75
2021/11/11 09:30:24;;;;;;;13.05;5.78;;;12.70;93.80;;;;;;5093814;28;20410;-74
2021/11/11 09:32:50;;;;;;;50.10;22.23;;;12.70;93.80;;;;;;5103560;28;20439;-73
2021/11/11 09:35:17;;;;;;;27.33;12.95;;;12.70;93.90;;;;;;5106612;28;20055;-81
2021/11/11 09:37:43;;;;;;;26.38;11.25;;;12.70;93.90;;;;;;5104393;28;20058;-74
2021/11/11 09:40:14;;;;;;;11.98;6.68;;;12.70;93.80;;;;;;5087088;27;20032;-74
2021/11/11 09:42:40;;;;;;;11.82;6.07;;;12.80;93.80;;;;;;5104107;27;20403;-75
2021/11/11 09:45:10;;;;;;;10.25;6.13;;;12.80;93.80;;;;;;5093056;28;20028;-75
2021/11/11 09:47:36;;;;;;;19.08;7.38;;;12.70;93.90;;;;;;5103795;28;20107;-76
2021/11/11 09:50:06;;;;;;;14.68;7.22;;;12.70;93.90;;;;;;5092558;28;20024;-76
2021/11/11 09:52:33;;;;;;;15.70;7.85;;;12.70;93.90;;;;;;5104938;28;20063;-75
2021/11/11 10:00:32;;;;;;;9.85;5.82;;;12.70;94.10;;;;;;5105769;28;20753;-75
2021/11/11 10:02:57;;;;;;;24.05;10.70;;;12.80;94.10;;;;;;5102328;28;20031;-76
2021/11/11 10:05:23;;;;;;;10.00;5.18;;;12.80;94.20;;;;;;5091873;28;20360;-75
2021/11/11 10:07:50;;;;;;;14.93;7.15;;;12.70;94.20;;;;;;5096067;28;20549;-75
2021/11/11 10:10:37;;;;;;;10.13;5.40;;;12.70;94.30;;;;;;5108477;28;20417;-75
2021/11/11 10:13:20;;;;;;;21.30;8.68;;;12.70;94.40;;;;;;5094000;28;20383;-75
2021/11/11 10:16:06;;;;;;;25.77;13.13;;;12.70;94.40;;;;;;5105086;28;20375;-76
2021/11/11 10:18:48;;;;;;;13.43;7.28;;;12.70;94.50;;;;;;5105103;28;20069;-76
2021/11/11 10:21:45;;;;;;;15.48;9.18;;;12.80;94.50;;;;;;5104911;28;20059;-75
2021/11/11 10:24:12;;;;;;;21.40;9.00;;;12.70;94.60;;;;;;5093403;28;20046;-75
2021/11/11 10:26:40;;;;;;;23.10;11.25;;;12.70;94.70;;;;;;5100721;27;20031;-75
2021/11/11 10:29:19;;;;;;;23.45;11.38;;;12.70;94.70;;;;;;5097184;28;20490;-80
2021/11/11 10:31:53;;;;;;;19.60;9.38;;;12.70;94.80;;;;;;5109637;27;20020;-75
2021/11/11 10:34:19;;;;;;;15.30;7.68;;;12.80;94.90;;;;;;5110171;28;20672;-75
2021/11/11 10:36:49;;;;;;;23.08;10.77;;;12.80;94.90;;;;;;5099234;28;20043;-75
2021/11/11 10:39:21;;;;;;;12.90;7.20;;;12.80;95.00;;;;;;5106246;28;20368;-75
2021/11/11 10:41:47;;;;;;;12.25;7.00;;;12.80;95.00;;;;;;5094099;28;20032;-76
2021/11/11 10:44:31;;;;;;;21.20;8.05;;;12.80;95.00;;;;;;5102847;28;20024;-75
2021/11/11 10:47:00;;;;;;;18.42;9.38;;;12.80;95.00;;;;;;5103351;28;20043;-75
2021/11/11 10:49:50;;;;;;;22.92;10.90;;;12.80;95.00;;;;;;5095251;28;20032;-76
2021/11/11 10:52:23;;;;;;;12.63;6.25;;;12.90;95.10;;;;;;5103393;28;20039;-75
2021/11/11 10:54:57;;;;;;;18.45;8.13;;;12.90;95.10;;;;;;5090579;28;20044;-75
2021/11/11 10:57:41;;;;;;;25.95;11.40;;;12.90;95.10;;;;;;5077212;28;20044;-75
2021/11/11 11:00:24;;;;;;;6.63;4.25;;;12.90;95.10;;;;;;5090315;28;20040;-72
2021/11/11 11:02:54;;;;;;;18.10;8.80;;;12.90;95.20;;;;;;5070932;28;20033;-82
2021/11/11 11:05:23;;;;;;;19.83;7.32;;;12.90;95.20;;;;;;5071085;28;20472;-74
2021/11/11 11:08:15;;;;;;;18.45;9.07;;;13.00;95.20;;;;;;5082155;28;20447;-78
2021/11/11 11:10:44;;;;;;;15.68;6.70;;;13.00;95.20;;;;;;5077704;28;20028;-78
2021/11/11 11:13:18;;;;;;;20.88;10.15;;;13.00;95.20;;;;;;5073698;28;20055;-78
2021/11/11 11:15:50;;;;;;;11.38;6.40;;;13.00;95.20;;;;;;5082194;28;20063;-79
2021/11/11 11:18:22;;;;;;;20.20;8.95;;;13.00;95.30;;;;;;5085599;28;20650;-78
2021/11/11 11:20:48;;;;;;;15.40;7.75;;;13.00;95.30;;;;;;5083366;28;20028;-78
2021/11/11 11:23:22;;;;;;;14.05;7.97;;;13.00;95.30;;;;;;5081631;28;20149;-78
2021/11/11 11:25:50;;;;;;;14.13;7.38;;;13.10;95.30;;;;;;5077929;28;20025;-78
2021/11/11 11:28:37;;;;;;;15.70;8.30;;;13.10;95.30;;;;;;5076835;28;20033;-78
2021/11/11 11:31:05;;;;;;;12.55;7.32;;;13.10;95.40;;;;;;5087138;28;20081;-79
2021/11/11 11:33:43;;;;;;;7.45;5.68;;;13.10;95.40;;;;;;5074566;28;20031;-78
2021/11/11 11:36:29;;;;;;;15.57;6.97;;;13.20;95.50;;;;;;5089988;28;20103;-77
2021/11/11 11:38:55;;;;;;;11.75;6.85;;;13.10;95.50;;;;;;5078624;28;20067;-76
2021/11/11 11:41:37;;;;;;;15.23;7.50;;;13.20;95.50;;;;;;5081415;28;20032;-77
2021/11/11 11:44:22;;;;;;;11.32;4.47;;;13.20;95.60;;;;;;5093838;28;20078;-87
2021/11/11 11:47:38;;;;;;;18.73;8.93;;;13.20;95.60;;;;;;5089189;28;20028;-89
2021/11/11 11:50:05;;;;;;;13.10;5.35;;;13.20;95.60;;;;;;5082560;28;20038;-90
2021/11/11 11:52:33;;;;;;;12.95;6.05;;;13.30;95.60;;;;;;5083234;28;20024;-89
2021/11/11 11:55:19;;;;;;;17.95;7.57;;;13.30;95.60;;;;;;5096173;27;20074;-93
2021/11/11 12:00:46;;;;;;;13.10;6.38;;;13.30;95.60;;;;;;5104054;28;20032;-91
2021/11/11 12:03:34;;;;;;;15.15;7.78;;;13.40;95.60;;;;;;5116329;28;20105;-75
2021/11/11 12:14:37;;;;;;;11.52;5.20;;;13.40;95.60;;;;;;5093175;28;20099;-78
2021/11/11 12:40:00;;;;;;;4.72;3.72;;;13.80;95.50;;;;;;5105905;28;20069;-88
2021/11/11 12:42:40;;;;;;;11.27;6.63;;;13.80;95.50;;;;;;5098070;28;20119;-79
2021/11/11 12:45:18;;;;;;;13.52;6.63;;;13.80;95.50;;;;;;5102977;28;20047;-90
2021/11/11 12:47:51;;;;;;;12.98;5.45;;;13.80;95.50;;;;;;5108165;28;20038;-90
2021/11/11 12:50:35;;;;;;;12.35;6.60;;;13.80;95.50;;;;;;5104791;28;20055;-78
2021/11/11 12:53:13;;;;;;;;;;;13.80;95.50;;;;;;5098053;28;20038;-85
2021/11/11 12:55:49;;;;;;;14.52;6.85;;;13.90;95.50;;;;;;5083075;28;20392;-83
2021/11/11 12:58:21;;;;;;;11.52;4.38;;;13.90;95.40;;;;;;5095867;28;20063;-82
2021/11/11 13:00:52;;;;;;;20.38;9.60;;;13.90;95.50;;;;;;5099841;28;20031;-77
2021/11/11 13:03:19;;;;;;;19.50;10.50;;;13.90;95.50;;;;;;5101741;28;20027;-77
2021/11/11 13:05:49;;;;;;;21.77;11.95;;;14.00;95.50;;;;;;5113639;27;20055;-91
2021/11/11 13:08:18;;;;;;;27.85;13.95;;;14.00;95.40;;;;;;5106597;28;20020;-86
2021/11/11 13:11:00;;;;;;;19.67;11.23;;;14.10;95.40;;;;;;5105037;27;20023;-93
2021/11/11 13:13:27;;;;;;;13.50;6.85;;;14.20;95.40;;;;;;5114092;27;20340;-83
2021/11/11 13:16:15;;;;;;;20.88;11.32;;;14.20;95.10;;;;;;5106017;27;20108;-70
2021/11/11 13:18:51;;;;;;;13.80;7.85;;;14.30;95.10;;;;;;5110983;28;20051;-79
2021/11/11 13:21:21;;;;;;;22.98;11.10;;;14.20;95.00;;;;;;5100977;28;20108;-79
2021/11/11 15:19:52;;;;;;;17.40;9.98;;;14.80;94.40;;;;;;5112620;28;20040;-77
2021/11/11 15:46:13;;;;;;;19.13;10.88;;;14.90;94.00;;;;;;5092727;28;20043;-75
2021/11/11 16:21:02;;;;;;;50.22;22.58;;;14.80;93.70;;;;;;5099789;28;20020;-83
2021/11/11 16:26:18;;;;;;;47.65;20.35;;;14.80;93.70;;;;;;5116459;27;20023;-78
2021/11/11 16:28:46;;;;;;;51.20;25.30;;;14.80;93.80;;;;;;5106044;27;20039;-78
2021/11/11 16:31:14;;;;;;;49.75;23.67;;;14.80;93.80;;;;;;5100217;28;20031;-78
2021/11/11 16:33:40;;;;;;;55.97;25.73;;;14.80;93.80;;;;;;5092734;28;20064;-81
2021/11/11 16:36:06;;;;;;;58.25;25.98;;;14.80;93.80;;;;;;5109962;28;20028;-78
2021/11/11 16:38:32;;;;;;;65.13;27.15;;;14.80;93.80;;;;;;5105339;28;20055;-80
2021/11/11 16:40:58;;;;;;;62.78;26.77;;;14.80;93.80;;;;;;5109600;28;20058;-81